sensor_id;sensor_type;location;lat;lon;timestamp;pressure;altitude;pressure_sealevel;temperature;humidity
62849;BME280;48941;49.516;8.286;2023-08-08T00:02:20;100474.59;;;14.28;77.95
62849;BME280;48941;49.516;8.286;2023-08-08T00:04:48;100479.97;;;14.28;78.08
62849;BME280;48941;49.516;8.286;2023-08-08T00:07:16;100479.66;;;14.31;78.11
62849;BME280;48941;49.516;8.286;2023-08-08T00:09:45;100471.47;;;14.32;77.77
62849;BME280;48941;49.516;8.286;2023-08-08T00:12:13;100474.03;;;14.34;77.67
62849;BME280;48941;49.516;8.286;2023-08-08T00:14:41;100472.19;;;14.34;77.63
62849;BME280;48941;49.516;8.286;2023-08-08T00:17:08;100472.88;;;14.37;77.89
62849;BME280;48941;49.516;8.286;2023-08-08T00:19:36;100471.88;;;14.38;77.52
62849;BME280;48941;49.516;8.286;2023-08-08T00:22:04;100470.06;;;14.38;77.55
62849;BME280;48941;49.516;8.286;2023-08-08T00:24:32;100471.88;;;14.38;78.15
62849;BME280;48941;49.516;8.286;2023-08-08T00:27:01;100486.13;;;14.38;77.76
62849;BME280;48941;49.516;8.286;2023-08-08T00:29:29;100482.59;;;14.38;78.22
62849;BME280;48941;49.516;8.286;2023-08-08T00:31:57;100468.66;;;14.34;78.24
62849;BME280;48941;49.516;8.286;2023-08-08T00:34:25;100474.28;;;14.31;78.62
62849;BME280;48941;49.516;8.286;2023-08-08T00:36:53;100470.09;;;14.28;79.05
62849;BME280;48941;49.516;8.286;2023-08-08T00:39:21;100456.72;;;14.19;79.71
62849;BME280;48941;49.516;8.286;2023-08-08T00:41:48;100459.97;;;14.12;80.07
62849;BME280;48941;49.516;8.286;2023-08-08T00:44:17;100459.41;;;14.09;80.54
62849;BME280;48941;49.516;8.286;2023-08-08T00:46:45;100466.03;;;14.05;80.78
62849;BME280;48941;49.516;8.286;2023-08-08T00:49:13;100456.75;;;13.99;80.92
62849;BME280;48941;49.516;8.286;2023-08-08T00:51:41;100457.19;;;13.94;81.15
62849;BME280;48941;49.516;8.286;2023-08-08T00:54:10;100457.44;;;13.91;81.63
62849;BME280;48941;49.516;8.286;2023-08-08T00:56:38;100463.94;;;13.89;81.39
62849;BME280;48941;49.516;8.286;2023-08-08T00:59:07;100451.69;;;13.86;81.63
62849;BME280;48941;49.516;8.286;2023-08-08T01:01:37;100461.53;;;13.86;81.61
62849;BME280;48941;49.516;8.286;2023-08-08T01:04:05;100451.13;;;13.83;81.70
62849;BME280;48941;49.516;8.286;2023-08-08T01:06:37;100460.13;;;13.82;81.89
62849;BME280;48941;49.516;8.286;2023-08-08T01:09:10;100450.44;;;13.81;82.05
62849;BME280;48941;49.516;8.286;2023-08-08T01:11:41;100453.09;;;13.81;81.86
62849;BME280;48941;49.516;8.286;2023-08-08T01:14:10;100458.47;;;13.81;81.84
62849;BME280;48941;49.516;8.286;2023-08-08T01:16:40;100456.63;;;13.81;81.43
62849;BME280;48941;49.516;8.286;2023-08-08T01:19:12;100458.47;;;13.81;81.60
62849;BME280;48941;49.516;8.286;2023-08-08T01:21:44;100452.81;;;13.84;81.73
62849;BME280;48941;49.516;8.286;2023-08-08T01:24:17;100458.03;;;13.85;81.79
62849;BME280;48941;49.516;8.286;2023-08-08T01:26:46;100455.47;;;13.84;81.55
62849;BME280;48941;49.516;8.286;2023-08-08T01:29:14;100451.84;;;13.85;81.43
62849;BME280;48941;49.516;8.286;2023-08-08T01:31:42;100455.47;;;13.84;82.09
62849;BME280;48941;49.516;8.286;2023-08-08T01:34:10;100450.28;;;13.82;82.06
62849;BME280;48941;49.516;8.286;2023-08-08T01:36:44;100451.41;;;13.80;81.97
62849;BME280;48941;49.516;8.286;2023-08-08T01:39:26;100440.00;;;13.78;82.13
62849;BME280;48941;49.516;8.286;2023-08-08T01:41:55;100448.88;;;13.78;81.86
62849;BME280;48941;49.516;8.286;2023-08-08T01:44:24;100444.66;;;13.75;81.98
62849;BME280;48941;49.516;8.286;2023-08-08T01:46:52;100442.13;;;13.74;82.12
62849;BME280;48941;49.516;8.286;2023-08-08T01:49:20;100444.94;;;13.72;82.34
62849;BME280;48941;49.516;8.286;2023-08-08T01:51:48;100450.44;;;13.71;82.40
62849;BME280;48941;49.516;8.286;2023-08-08T01:54:18;100453.38;;;13.68;82.92
62849;BME280;48941;49.516;8.286;2023-08-08T01:56:46;100450.88;;;13.66;83.05
62849;BME280;48941;49.516;8.286;2023-08-08T01:59:14;100452.84;;;13.64;83.18
62849;BME280;48941;49.516;8.286;2023-08-08T02:01:42;100443.09;;;13.63;83.17
62849;BME280;48941;49.516;8.286;2023-08-08T02:04:10;100449.72;;;13.59;83.22
62849;BME280;48941;49.516;8.286;2023-08-08T02:06:37;100452.41;;;13.59;83.21
62849;BME280;48941;49.516;8.286;2023-08-08T02:09:06;100455.22;;;13.58;83.35
62849;BME280;48941;49.516;8.286;2023-08-08T02:11:35;100452.53;;;13.58;83.94
62849;BME280;48941;49.516;8.286;2023-08-08T02:14:03;100454.38;;;13.57;83.83
62849;BME280;48941;49.516;8.286;2023-08-08T02:16:31;100441.44;;;13.52;83.67
62849;BME280;48941;49.516;8.286;2023-08-08T02:18:59;100432.84;;;13.49;84.24
62849;BME280;48941;49.516;8.286;2023-08-08T02:21:26;100438.03;;;13.41;84.37
62849;BME280;48941;49.516;8.286;2023-08-08T02:23:54;100435.50;;;13.39;84.46
62849;BME280;48941;49.516;8.286;2023-08-08T02:26:22;100436.63;;;13.37;84.30
62849;BME280;48941;49.516;8.286;2023-08-08T02:28:51;100426.19;;;13.33;84.25
62849;BME280;48941;49.516;8.286;2023-08-08T02:31:19;100433.66;;;13.30;84.40
62849;BME280;48941;49.516;8.286;2023-08-08T02:33:48;100435.06;;;13.24;84.60
62849;BME280;48941;49.516;8.286;2023-08-08T02:36:17;100427.28;;;13.21;84.99
62849;BME280;48941;49.516;8.286;2023-08-08T02:38:45;100439.81;;;13.21;85.40
62849;BME280;48941;49.516;8.286;2023-08-08T02:41:12;100437.28;;;13.19;85.12
62849;BME280;48941;49.516;8.286;2023-08-08T02:43:40;100439.00;;;13.20;85.26
62849;BME280;48941;49.516;8.286;2023-08-08T02:46:09;100434.75;;;13.18;85.66
62849;BME280;48941;49.516;8.286;2023-08-08T02:48:37;100440.38;;;13.14;85.55
62849;BME280;48941;49.516;8.286;2023-08-08T02:51:05;100438.25;;;13.08;85.16
62849;BME280;48941;49.516;8.286;2023-08-08T02:53:32;100440.38;;;13.05;85.82
62849;BME280;48941;49.516;8.286;2023-08-08T02:56:00;100446.69;;;13.04;85.71
62849;BME280;48941;49.516;8.286;2023-08-08T02:58:28;100439.66;;;13.03;86.18
62849;BME280;48941;49.516;8.286;2023-08-08T03:00:56;100436.97;;;13.03;86.26
62849;BME280;48941;49.516;8.286;2023-08-08T03:03:25;100432.91;;;12.99;86.34
62849;BME280;48941;49.516;8.286;2023-08-08T03:05:53;100425.00;;;12.97;86.54
62849;BME280;48941;49.516;8.286;2023-08-08T03:08:21;100435.81;;;12.95;86.50
62849;BME280;48941;49.516;8.286;2023-08-08T03:10:49;100433.28;;;12.94;87.02
62849;BME280;48941;49.516;8.286;2023-08-08T03:13:16;100431.63;;;12.93;87.01
62849;BME280;48941;49.516;8.286;2023-08-08T03:15:44;100429.91;;;12.92;87.13
62849;BME280;48941;49.516;8.286;2023-08-08T03:18:11;100430.47;;;12.86;87.47
62849;BME280;48941;49.516;8.286;2023-08-08T03:20:40;100418.22;;;12.83;87.87
62849;BME280;48941;49.516;8.286;2023-08-08T03:23:08;100423.69;;;12.82;88.10
62849;BME280;48941;49.516;8.286;2023-08-08T03:25:36;100422.84;;;12.81;88.38
62849;BME280;48941;49.516;8.286;2023-08-08T03:28:04;100421.19;;;12.80;88.06
62849;BME280;48941;49.516;8.286;2023-08-08T03:30:32;100422.84;;;12.81;88.27
62849;BME280;48941;49.516;8.286;2023-08-08T03:33:00;100422.84;;;12.81;88.20
62849;BME280;48941;49.516;8.286;2023-08-08T03:35:27;100422.84;;;12.81;87.90
62849;BME280;48941;49.516;8.286;2023-08-08T03:37:57;100418.63;;;12.79;88.33
62849;BME280;48941;49.516;8.286;2023-08-08T03:40:24;100414.97;;;12.80;88.79
62849;BME280;48941;49.516;8.286;2023-08-08T03:42:52;100414.13;;;12.79;89.23
62849;BME280;48941;49.516;8.286;2023-08-08T03:45:21;100417.81;;;12.78;89.24
62849;BME280;48941;49.516;8.286;2023-08-08T03:47:49;100414.25;;;12.78;89.27
62849;BME280;48941;49.516;8.286;2023-08-08T03:50:16;100411.00;;;12.74;89.32
62849;BME280;48941;49.516;8.286;2023-08-08T03:52:44;100420.28;;;12.70;89.27
62849;BME280;48941;49.516;8.286;2023-08-08T03:55:13;100418.59;;;12.69;89.60
62849;BME280;48941;49.516;8.286;2023-08-08T03:57:41;100425.91;;;12.67;89.88
62849;BME280;48941;49.516;8.286;2023-08-08T04:00:10;100428.59;;;12.67;90.01
62849;BME280;48941;49.516;8.286;2023-08-08T04:02:38;100434.63;;;12.69;89.51
62849;BME280;48941;49.516;8.286;2023-08-08T04:05:06;100435.47;;;12.69;89.49
62849;BME280;48941;49.516;8.286;2023-08-08T04:07:35;100435.75;;;12.66;89.63
62849;BME280;48941;49.516;8.286;2023-08-08T04:10:03;100435.19;;;12.63;89.88
62849;BME280;48941;49.516;8.286;2023-08-08T04:12:32;100430.97;;;12.60;89.90
62849;BME280;48941;49.516;8.286;2023-08-08T04:15:00;100425.88;;;12.57;90.06
62849;BME280;48941;49.516;8.286;2023-08-08T04:17:28;100423.34;;;12.55;89.92
62849;BME280;48941;49.516;8.286;2023-08-08T04:19:56;100426.13;;;12.54;90.28
62849;BME280;48941;49.516;8.286;2023-08-08T04:22:24;100428.09;;;12.52;90.06
62849;BME280;48941;49.516;8.286;2023-08-08T04:24:52;100422.75;;;12.52;90.29
62849;BME280;48941;49.516;8.286;2023-08-08T04:27:19;100423.03;;;12.49;90.46
62849;BME280;48941;49.516;8.286;2023-08-08T04:29:49;100431.31;;;12.46;90.70
62849;BME280;48941;49.516;8.286;2023-08-08T04:32:16;100430.47;;;12.45;90.67
62849;BME280;48941;49.516;8.286;2023-08-08T04:34:44;100428.63;;;12.46;90.85
62849;BME280;48941;49.516;8.286;2023-08-08T04:37:12;100431.31;;;12.46;90.85
62849;BME280;48941;49.516;8.286;2023-08-08T04:39:39;100442.84;;;12.46;91.39
62849;BME280;48941;49.516;8.286;2023-08-08T04:42:07;100439.47;;;12.44;91.01
62849;BME280;48941;49.516;8.286;2023-08-08T04:44:35;100436.94;;;12.43;91.75
62849;BME280;48941;49.516;8.286;2023-08-08T04:47:04;100434.25;;;12.43;91.60
62849;BME280;48941;49.516;8.286;2023-08-08T04:49:32;100435.09;;;12.43;91.70
62849;BME280;48941;49.516;8.286;2023-08-08T04:52:00;100437.09;;;12.51;92.05
62849;BME280;48941;49.516;8.286;2023-08-08T04:54:29;100440.47;;;12.53;91.51
62849;BME280;48941;49.516;8.286;2023-08-08T04:56:57;100435.72;;;12.57;91.70
62849;BME280;48941;49.516;8.286;2023-08-08T04:59:25;100433.75;;;12.59;91.64
62849;BME280;48941;49.516;8.286;2023-08-08T05:01:52;100437.97;;;12.61;91.87
62849;BME280;48941;49.516;8.286;2023-08-08T05:04:21;100438.56;;;12.65;91.79
62849;BME280;48941;49.516;8.286;2023-08-08T05:06:49;100439.97;;;12.69;91.59
62849;BME280;48941;49.516;8.286;2023-08-08T05:09:17;100445.19;;;12.70;91.57
62849;BME280;48941;49.516;8.286;2023-08-08T05:11:46;100441.28;;;12.74;91.97
62849;BME280;48941;49.516;8.286;2023-08-08T05:14:14;100443.81;;;12.76;91.30
62849;BME280;48941;49.516;8.286;2023-08-08T05:16:42;100444.38;;;12.80;91.73
62849;BME280;48941;49.516;8.286;2023-08-08T05:19:10;100440.31;;;12.85;91.50
62849;BME280;48941;49.516;8.286;2023-08-08T05:21:39;100440.06;;;12.88;91.32
62849;BME280;48941;49.516;8.286;2023-08-08T05:24:07;100440.47;;;12.93;91.55
62849;BME280;48941;49.516;8.286;2023-08-08T05:26:34;100436.41;;;12.99;91.34
62849;BME280;48941;49.516;8.286;2023-08-08T05:29:02;100436.97;;;13.03;90.93
62849;BME280;48941;49.516;8.286;2023-08-08T05:31:30;100429.38;;;13.08;91.00
62849;BME280;48941;49.516;8.286;2023-08-08T05:33:58;100430.78;;;13.12;90.95
62849;BME280;48941;49.516;8.286;2023-08-08T05:36:27;100427.59;;;13.18;90.69
62849;BME280;48941;49.516;8.286;2023-08-08T05:38:56;100433.09;;;13.26;90.83
62849;BME280;48941;49.516;8.286;2023-08-08T05:41:24;100440.56;;;13.32;90.75
62849;BME280;48941;49.516;8.286;2023-08-08T05:43:52;100436.78;;;13.35;90.51
62849;BME280;48941;49.516;8.286;2023-08-08T05:46:19;100444.94;;;13.43;89.87
62849;BME280;48941;49.516;8.286;2023-08-08T05:48:47;100441.00;;;13.47;90.20
62849;BME280;48941;49.516;8.286;2023-08-08T05:51:15;100441.44;;;13.52;89.97
62849;BME280;48941;49.516;8.286;2023-08-08T05:53:43;100442.00;;;13.56;90.06
62849;BME280;48941;49.516;8.286;2023-08-08T05:56:12;100443.25;;;13.62;89.41
62849;BME280;48941;49.516;8.286;2023-08-08T05:58:40;100447.19;;;13.67;89.68
62849;BME280;48941;49.516;8.286;2023-08-08T06:01:08;100449.28;;;13.73;89.26
62849;BME280;48941;49.516;8.286;2023-08-08T06:03:38;100447.06;;;13.79;89.21
62849;BME280;48941;49.516;8.286;2023-08-08T06:06:06;100449.16;;;13.85;89.00
62849;BME280;48941;49.516;8.286;2023-08-08T06:08:34;100457.31;;;13.93;88.30
62849;BME280;48941;49.516;8.286;2023-08-08T06:11:01;100446.03;;;13.99;87.93
62849;BME280;48941;49.516;8.286;2023-08-08T06:13:31;100447.16;;;14.06;88.03
62849;BME280;48941;49.516;8.286;2023-08-08T06:15:58;100444.59;;;14.14;87.67
62849;BME280;48941;49.516;8.286;2023-08-08T06:18:27;100448.38;;;14.22;86.96
62849;BME280;48941;49.516;8.286;2023-08-08T06:20:55;100447.81;;;14.28;86.85
62849;BME280;48941;49.516;8.286;2023-08-08T06:23:23;100447.94;;;14.36;86.57
62849;BME280;48941;49.516;8.286;2023-08-08T06:25:51;100449.16;;;14.42;87.03
62849;BME280;48941;49.516;8.286;2023-08-08T06:28:19;100452.94;;;14.49;86.11
62849;BME280;48941;49.516;8.286;2023-08-08T06:30:48;100447.84;;;14.55;86.14
62849;BME280;48941;49.516;8.286;2023-08-08T06:33:15;100444.44;;;14.63;85.56
62849;BME280;48941;49.516;8.286;2023-08-08T06:35:44;100438.50;;;14.69;84.94
62849;BME280;48941;49.516;8.286;2023-08-08T06:38:12;100442.66;;;14.82;84.42
62849;BME280;48941;49.516;8.286;2023-08-08T06:40:40;100446.44;;;14.89;84.05
62849;BME280;48941;49.516;8.286;2023-08-08T06:43:08;100441.16;;;14.97;83.29
62849;BME280;48941;49.516;8.286;2023-08-08T06:45:36;100441.13;;;15.07;82.02
62849;BME280;48941;49.516;8.286;2023-08-08T06:48:06;100447.13;;;15.19;80.72
62849;BME280;48941;49.516;8.286;2023-08-08T06:50:34;100435.31;;;15.29;80.48
62849;BME280;48941;49.516;8.286;2023-08-08T06:53:03;100438.59;;;15.41;79.30
62849;BME280;48941;49.516;8.286;2023-08-08T06:55:31;100427.81;;;15.51;79.41
62849;BME280;48941;49.516;8.286;2023-08-08T06:57:59;100433.91;;;15.61;78.53
62849;BME280;48941;49.516;8.286;2023-08-08T07:00:27;100435.53;;;15.72;76.06
62849;BME280;48941;49.516;8.286;2023-08-08T07:02:54;100444.38;;;15.82;74.31
62849;BME280;48941;49.516;8.286;2023-08-08T07:05:26;100438.97;;;16.00;72.54
62849;BME280;48941;49.516;8.286;2023-08-08T07:07:54;100442.09;;;16.13;69.78
62849;BME280;48941;49.516;8.286;2023-08-08T07:10:22;100440.66;;;16.27;67.31
62849;BME280;48941;49.516;8.286;2023-08-08T07:12:50;100446.41;;;16.32;68.14
62849;BME280;48941;49.516;8.286;2023-08-08T07:15:18;100442.78;;;16.42;66.24
62849;BME280;48941;49.516;8.286;2023-08-08T07:17:46;100437.75;;;16.47;67.07
62849;BME280;48941;49.516;8.286;2023-08-08T07:20:14;100439.13;;;16.59;65.53
62849;BME280;48941;49.516;8.286;2023-08-08T07:22:43;100433.34;;;16.72;64.71
62849;BME280;48941;49.516;8.286;2023-08-08T07:25:11;100439.22;;;16.76;64.90
62849;BME280;48941;49.516;8.286;2023-08-08T07:27:39;100434.94;;;16.91;63.64
62849;BME280;48941;49.516;8.286;2023-08-08T07:30:08;100440.31;;;16.91;62.58
62849;BME280;48941;49.516;8.286;2023-08-08T07:32:36;100442.88;;;17.01;62.01
62849;BME280;48941;49.516;8.286;2023-08-08T07:35:04;100435.50;;;17.11;62.23
62849;BME280;48941;49.516;8.286;2023-08-08T07:37:34;100441.78;;;17.28;59.58
62849;BME280;48941;49.516;8.286;2023-08-08T07:40:13;100438.75;;;17.39;60.52
62849;BME280;48941;49.516;8.286;2023-08-08T07:42:41;100442.16;;;17.49;59.57
62849;BME280;48941;49.516;8.286;2023-08-08T07:45:09;100437.44;;;17.60;58.43
62849;BME280;48941;49.516;8.286;2023-08-08T07:47:37;100436.59;;;17.67;56.39
62849;BME280;48941;49.516;8.286;2023-08-08T07:50:06;100446.69;;;17.82;56.63
62849;BME280;48941;49.516;8.286;2023-08-08T07:52:34;100434.91;;;17.91;56.11
62849;BME280;48941;49.516;8.286;2023-08-08T07:55:05;100447.53;;;17.99;57.67
62849;BME280;48941;49.516;8.286;2023-08-08T07:57:33;100439.13;;;18.02;55.34
62849;BME280;48941;49.516;8.286;2023-08-08T08:00:01;100437.59;;;18.16;54.32
62849;BME280;48941;49.516;8.286;2023-08-08T08:02:37;100429.31;;;18.25;52.90
62849;BME280;48941;49.516;8.286;2023-08-08T08:05:06;100427.28;;;18.36;52.80
62849;BME280;48941;49.516;8.286;2023-08-08T08:07:35;100424.19;;;18.47;53.38
62849;BME280;48941;49.516;8.286;2023-08-08T08:10:06;100431.03;;;18.66;53.75
62849;BME280;48941;49.516;8.286;2023-08-08T08:12:36;100432.50;;;18.77;53.62
62849;BME280;48941;49.516;8.286;2023-08-08T08:15:05;100429.28;;;18.89;53.59
62849;BME280;48941;49.516;8.286;2023-08-08T08:17:33;100427.56;;;18.97;52.37
62849;BME280;48941;49.516;8.286;2023-08-08T08:20:01;100420.47;;;18.96;52.49
62849;BME280;48941;49.516;8.286;2023-08-08T08:22:32;100429.53;;;19.03;52.76
62849;BME280;48941;49.516;8.286;2023-08-08T08:25:00;100428.31;;;19.14;51.04
62849;BME280;48941;49.516;8.286;2023-08-08T08:27:29;100427.66;;;19.12;48.67
62849;BME280;48941;49.516;8.286;2023-08-08T08:29:57;100427.28;;;19.15;48.75
62849;BME280;48941;49.516;8.286;2023-08-08T08:32:25;100420.34;;;19.20;47.73
62849;BME280;48941;49.516;8.286;2023-08-08T08:34:52;100433.78;;;19.28;47.32
62849;BME280;48941;49.516;8.286;2023-08-08T08:37:20;100420.22;;;19.37;47.10
62849;BME280;48941;49.516;8.286;2023-08-08T08:39:48;100420.13;;;19.53;46.59
62849;BME280;48941;49.516;8.286;2023-08-08T08:42:16;100422.81;;;19.76;47.05
62849;BME280;48941;49.516;8.286;2023-08-08T08:44:47;100419.69;;;19.87;48.09
62849;BME280;48941;49.516;8.286;2023-08-08T08:47:17;100421.81;;;19.92;44.79
62849;BME280;48941;49.516;8.286;2023-08-08T08:49:47;100415.72;;;20.13;45.26
62849;BME280;48941;49.516;8.286;2023-08-08T08:52:15;100421.03;;;20.36;46.34
62849;BME280;48941;49.516;8.286;2023-08-08T08:54:43;100410.22;;;20.51;46.85
62849;BME280;48941;49.516;8.286;2023-08-08T08:57:12;100406.88;;;20.64;45.52
62849;BME280;48941;49.516;8.286;2023-08-08T08:59:39;100405.84;;;20.80;45.14
62849;BME280;48941;49.516;8.286;2023-08-08T09:02:10;100403.06;;;20.95;44.80
62849;BME280;48941;49.516;8.286;2023-08-08T09:04:39;100400.06;;;21.04;44.87
62849;BME280;48941;49.516;8.286;2023-08-08T09:07:08;100404.81;;;21.17;45.47
62849;BME280;48941;49.516;8.286;2023-08-08T09:09:36;100405.13;;;21.29;43.99
62849;BME280;48941;49.516;8.286;2023-08-08T09:12:05;100405.75;;;21.46;43.84
62849;BME280;48941;49.516;8.286;2023-08-08T09:14:33;100410.69;;;21.64;42.71
62849;BME280;48941;49.516;8.286;2023-08-08T09:17:01;100406.31;;;21.63;43.29
62849;BME280;48941;49.516;8.286;2023-08-08T09:19:30;100394.25;;;21.65;43.10
62849;BME280;48941;49.516;8.286;2023-08-08T09:21:58;100397.09;;;21.79;42.66
62849;BME280;48941;49.516;8.286;2023-08-08T09:24:26;100399.00;;;21.85;42.75
62849;BME280;48941;49.516;8.286;2023-08-08T09:26:54;100397.00;;;22.00;41.93
62849;BME280;48941;49.516;8.286;2023-08-08T09:29:23;100386.88;;;22.09;42.03
62849;BME280;48941;49.516;8.286;2023-08-08T09:31:50;100388.63;;;22.23;41.97
62849;BME280;48941;49.516;8.286;2023-08-08T09:34:24;100382.25;;;22.38;42.19
62849;BME280;48941;49.516;8.286;2023-08-08T09:36:53;100388.78;;;22.50;41.29
62849;BME280;48941;49.516;8.286;2023-08-08T09:39:21;100374.84;;;22.60;41.00
62849;BME280;48941;49.516;8.286;2023-08-08T09:41:49;100386.31;;;22.55;40.30
62849;BME280;48941;49.516;8.286;2023-08-08T09:44:17;100377.72;;;22.52;40.91
62849;BME280;48941;49.516;8.286;2023-08-08T09:46:45;100386.97;;;22.57;41.06
62849;BME280;48941;49.516;8.286;2023-08-08T09:49:13;100383.78;;;22.54;40.39
62849;BME280;48941;49.516;8.286;2023-08-08T09:51:42;100374.03;;;22.59;40.28
62849;BME280;48941;49.516;8.286;2023-08-08T09:54:12;100377.38;;;22.68;39.91
62849;BME280;48941;49.516;8.286;2023-08-08T09:56:42;100377.66;;;22.86;41.21
62849;BME280;48941;49.516;8.286;2023-08-08T09:59:10;100371.03;;;23.02;39.54
62849;BME280;48941;49.516;8.286;2023-08-08T10:01:40;100364.22;;;23.26;38.80
62849;BME280;48941;49.516;8.286;2023-08-08T10:04:11;100363.16;;;23.27;39.07
62849;BME280;48941;49.516;8.286;2023-08-08T10:06:39;100374.84;;;23.21;38.46
62849;BME280;48941;49.516;8.286;2023-08-08T10:09:07;100362.53;;;23.32;38.58
62849;BME280;48941;49.516;8.286;2023-08-08T10:11:36;100372.38;;;23.40;38.35
62849;BME280;48941;49.516;8.286;2023-08-08T10:14:05;100369.66;;;23.40;38.27
62849;BME280;48941;49.516;8.286;2023-08-08T10:16:34;100372.59;;;23.52;38.20
62849;BME280;48941;49.516;8.286;2023-08-08T10:19:03;100370.94;;;23.51;39.36
62849;BME280;48941;49.516;8.286;2023-08-08T10:21:33;100370.50;;;23.60;37.77
62849;BME280;48941;49.516;8.286;2023-08-08T10:24:03;100376.56;;;23.49;37.57
62849;BME280;48941;49.516;8.286;2023-08-08T10:26:32;100375.72;;;23.62;37.72
62849;BME280;48941;49.516;8.286;2023-08-08T10:29:01;100368.81;;;23.66;37.98
62849;BME280;48941;49.516;8.286;2023-08-08T10:31:33;100370.31;;;23.69;38.12
62849;BME280;48941;49.516;8.286;2023-08-08T10:34:02;100368.41;;;23.76;37.40
62849;BME280;48941;49.516;8.286;2023-08-08T10:36:45;100362.16;;;23.82;37.59
62849;BME280;48941;49.516;8.286;2023-08-08T10:39:16;100364.22;;;24.00;36.82
62849;BME280;48941;49.516;8.286;2023-08-08T10:41:46;100372.56;;;24.12;37.49
62849;BME280;48941;49.516;8.286;2023-08-08T10:44:23;100365.81;;;24.34;37.84
62849;BME280;48941;49.516;8.286;2023-08-08T10:46:52;100367.88;;;24.52;36.53
62849;BME280;48941;49.516;8.286;2023-08-08T10:49:23;100355.91;;;24.67;35.58
62849;BME280;48941;49.516;8.286;2023-08-08T10:51:51;100357.91;;;24.84;36.28
62849;BME280;48941;49.516;8.286;2023-08-08T10:54:23;100358.53;;;24.87;35.73
62849;BME280;48941;49.516;8.286;2023-08-08T10:56:55;100359.91;;;24.96;34.88
62849;BME280;48941;49.516;8.286;2023-08-08T10:59:26;100357.94;;;25.10;35.34
62849;BME280;48941;49.516;8.286;2023-08-08T11:01:56;100359.91;;;24.96;34.47
62849;BME280;48941;49.516;8.286;2023-08-08T11:04:25;100363.63;;;24.70;34.32
62849;BME280;48941;49.516;8.286;2023-08-08T11:06:56;100362.66;;;24.51;34.44
62849;BME280;48941;49.516;8.286;2023-08-08T11:09:24;100354.25;;;24.45;35.10
62849;BME280;48941;49.516;8.286;2023-08-08T11:11:53;100357.19;;;24.44;35.72
62849;BME280;48941;49.516;8.286;2023-08-08T11:14:22;100357.59;;;24.48;35.66
62849;BME280;48941;49.516;8.286;2023-08-08T11:16:52;100355.66;;;24.68;35.36
62849;BME280;48941;49.516;8.286;2023-08-08T11:19:20;100352.34;;;24.59;34.87
62849;BME280;48941;49.516;8.286;2023-08-08T11:21:49;100361.59;;;24.52;34.99
62849;BME280;48941;49.516;8.286;2023-08-08T11:24:17;100356.84;;;24.27;34.15
62849;BME280;48941;49.516;8.286;2023-08-08T11:26:45;100354.16;;;24.14;34.48
62849;BME280;48941;49.516;8.286;2023-08-08T11:29:14;100364.41;;;23.98;35.64
62849;BME280;48941;49.516;8.286;2023-08-08T11:31:42;100361.69;;;23.98;35.56
62849;BME280;48941;49.516;8.286;2023-08-08T11:34:15;100355.47;;;23.84;36.07
62849;BME280;48941;49.516;8.286;2023-08-08T11:36:43;100358.34;;;23.76;35.14
62849;BME280;48941;49.516;8.286;2023-08-08T11:39:12;100363.22;;;23.81;35.10
62849;BME280;48941;49.516;8.286;2023-08-08T11:41:40;100360.28;;;23.89;34.91
62849;BME280;48941;49.516;8.286;2023-08-08T11:44:09;100355.47;;;23.91;34.99
62849;BME280;48941;49.516;8.286;2023-08-08T11:46:43;100344.16;;;24.01;33.38
62849;BME280;48941;49.516;8.286;2023-08-08T11:49:13;100347.28;;;24.04;34.81
62849;BME280;48941;49.516;8.286;2023-08-08T11:51:43;100348.09;;;24.12;35.21
62849;BME280;48941;49.516;8.286;2023-08-08T11:54:12;100336.78;;;24.15;34.73
62849;BME280;48941;49.516;8.286;2023-08-08T11:56:41;100343.63;;;24.37;33.98
62849;BME280;48941;49.516;8.286;2023-08-08T11:59:09;100332.47;;;24.52;33.31
62849;BME280;48941;49.516;8.286;2023-08-08T12:01:38;100332.88;;;24.56;33.61
62849;BME280;48941;49.516;8.286;2023-08-08T12:04:09;100333.44;;;24.71;33.73
62849;BME280;48941;49.516;8.286;2023-08-08T12:06:38;100332.16;;;24.80;32.85
62849;BME280;48941;49.516;8.286;2023-08-08T12:09:06;100326.56;;;24.69;33.51
62849;BME280;48941;49.516;8.286;2023-08-08T12:11:35;100326.41;;;24.57;33.05
62849;BME280;48941;49.516;8.286;2023-08-08T12:14:04;100332.00;;;24.69;32.68
62849;BME280;48941;49.516;8.286;2023-08-08T12:16:37;100331.59;;;24.65;32.50
62849;BME280;48941;49.516;8.286;2023-08-08T12:19:07;100328.22;;;24.70;32.76
62849;BME280;48941;49.516;8.286;2023-08-08T12:21:39;100328.66;;;24.67;32.82
62849;BME280;48941;49.516;8.286;2023-08-08T12:24:07;100329.91;;;24.64;32.11
62849;BME280;48941;49.516;8.286;2023-08-08T12:26:34;100328.09;;;24.51;31.95
62849;BME280;48941;49.516;8.286;2023-08-08T12:29:02;100325.13;;;24.59;32.77
62849;BME280;48941;49.516;8.286;2023-08-08T12:31:30;100329.91;;;24.71;32.31
62849;BME280;48941;49.516;8.286;2023-08-08T12:33:58;100329.16;;;24.89;32.47
62849;BME280;48941;49.516;8.286;2023-08-08T12:36:26;100323.19;;;24.73;32.03
62849;BME280;48941;49.516;8.286;2023-08-08T12:38:55;100328.44;;;25.00;32.40
62849;BME280;48941;49.516;8.286;2023-08-08T12:41:23;100326.31;;;25.09;30.93
62849;BME280;48941;49.516;8.286;2023-08-08T12:43:52;100329.69;;;25.36;31.72
62849;BME280;48941;49.516;8.286;2023-08-08T12:46:20;100333.72;;;25.58;31.49
62849;BME280;48941;49.516;8.286;2023-08-08T12:48:48;100327.00;;;25.79;31.25
62849;BME280;48941;49.516;8.286;2023-08-08T12:51:15;100331.72;;;25.72;31.18
62849;BME280;48941;49.516;8.286;2023-08-08T12:53:44;100324.94;;;25.56;31.31
62849;BME280;48941;49.516;8.286;2023-08-08T12:56:13;100328.28;;;25.58;31.51
62849;BME280;48941;49.516;8.286;2023-08-08T12:58:41;100324.38;;;25.22;31.23